sensor_id;sensor_type;location;lat;lon;timestamp;temperature;humidity
20946;DHT22;10632;51.276;7.116;2022-11-20T00:00:09;1.40;99.90
20946;DHT22;10632;51.276;7.116;2022-11-20T00:02:42;1.40;99.90
20946;DHT22;10632;51.276;7.116;2022-11-20T00:08:00;1.50;99.90
20946;DHT22;10632;51.276;7.116;2022-11-20T00:13:38;1.50;99.90
20946;DHT22;10632;51.276;7.116;2022-11-20T00:18:59;1.50;99.90
20946;DHT22;10632;51.276;7.116;2022-11-20T00:21:28;1.50;99.90
20946;DHT22;10632;51.276;7.116;2022-11-20T00:23:58;1.50;99.90
20946;DHT22;10632;51.276;7.116;2022-11-20T00:26:36;1.60;99.90
20946;DHT22;10632;51.276;7.116;2022-11-20T00:29:08;1.60;99.90
20946;DHT22;10632;51.276;7.116;2022-11-20T00:31:38;1.60;99.90
20946;DHT22;10632;51.276;7.116;2022-11-20T00:34:05;1.60;99.90
20946;DHT22;10632;51.276;7.116;2022-11-20T00:36:36;1.60;99.90
20946;DHT22;10632;51.276;7.116;2022-11-20T00:39:13;1.60;99.90
20946;DHT22;10632;51.276;7.116;2022-11-20T00:41:48;1.60;99.90
20946;DHT22;10632;51.276;7.116;2022-11-20T00:44:23;1.60;99.90
20946;DHT22;10632;51.276;7.116;2022-11-20T00:46:50;1.60;99.90
20946;DHT22;10632;51.276;7.116;2022-11-20T00:49:24;1.60;99.90
20946;DHT22;10632;51.276;7.116;2022-11-20T00:51:56;1.60;99.90
20946;DHT22;10632;51.276;7.116;2022-11-20T00:54:28;1.70;99.90
20946;DHT22;10632;51.276;7.116;2022-11-20T00:57:01;1.70;99.90
20946;DHT22;10632;51.276;7.116;2022-11-20T00:59:37;1.70;99.90
20946;DHT22;10632;51.276;7.116;2022-11-20T01:05:01;1.70;99.90
20946;DHT22;10632;51.276;7.116;2022-11-20T01:07:32;1.70;99.90
20946;DHT22;10632;51.276;7.116;2022-11-20T01:10:08;1.70;99.90
20946;DHT22;10632;51.276;7.116;2022-11-20T01:12:43;1.70;99.90
20946;DHT22;10632;51.276;7.116;2022-11-20T01:15:36;1.70;99.90
20946;DHT22;10632;51.276;7.116;2022-11-20T01:18:22;1.70;99.90
20946;DHT22;10632;51.276;7.116;2022-11-20T01:20:56;1.80;99.90
20946;DHT22;10632;51.276;7.116;2022-11-20T01:23:32;1.70;99.90
20946;DHT22;10632;51.276;7.116;2022-11-20T01:26:08;1.70;99.90
20946;DHT22;10632;51.276;7.116;2022-11-20T01:28:35;1.70;99.90
20946;DHT22;10632;51.276;7.116;2022-11-20T01:31:14;1.70;99.90
20946;DHT22;10632;51.276;7.116;2022-11-20T01:33:48;1.70;99.90
20946;DHT22;10632;51.276;7.116;2022-11-20T01:36:17;1.70;99.90
20946;DHT22;10632;51.276;7.116;2022-11-20T01:38:44;1.70;99.90
20946;DHT22;10632;51.276;7.116;2022-11-20T01:41:15;1.70;99.90
20946;DHT22;10632;51.276;7.116;2022-11-20T01:44:04;1.80;99.90
20946;DHT22;10632;51.276;7.116;2022-11-20T01:46:37;1.80;99.90
20946;DHT22;10632;51.276;7.116;2022-11-20T01:49:10;1.80;99.90
20946;DHT22;10632;51.276;7.116;2022-11-20T01:51:47;1.80;99.90
20946;DHT22;10632;51.276;7.116;2022-11-20T01:54:21;1.80;99.90
20946;DHT22;10632;51.276;7.116;2022-11-20T01:56:51;1.80;99.90
20946;DHT22;10632;51.276;7.116;2022-11-20T01:59:24;1.80;99.90
20946;DHT22;10632;51.276;7.116;2022-11-20T02:01:53;1.70;99.90
20946;DHT22;10632;51.276;7.116;2022-11-20T02:04:25;1.70;99.90
20946;DHT22;10632;51.276;7.116;2022-11-20T02:06:57;1.70;99.90
20946;DHT22;10632;51.276;7.116;2022-11-20T02:12:10;1.70;99.90
20946;DHT22;10632;51.276;7.116;2022-11-20T02:14:58;1.70;99.90
20946;DHT22;10632;51.276;7.116;2022-11-20T02:17:25;1.70;99.90
20946;DHT22;10632;51.276;7.116;2022-11-20T02:19:54;1.70;99.90
20946;DHT22;10632;51.276;7.116;2022-11-20T02:22:31;1.70;99.90
20946;DHT22;10632;51.276;7.116;2022-11-20T02:25:04;1.70;99.90
20946;DHT22;10632;51.276;7.116;2022-11-20T02:27:32;1.70;99.90
20946;DHT22;10632;51.276;7.116;2022-11-20T02:30:05;1.70;99.90
20946;DHT22;10632;51.276;7.116;2022-11-20T02:32:35;1.70;99.90
20946;DHT22;10632;51.276;7.116;2022-11-20T02:38:22;1.80;99.90
20946;DHT22;10632;51.276;7.116;2022-11-20T02:41:02;1.80;99.90
20946;DHT22;10632;51.276;7.116;2022-11-20T02:43:36;1.70;99.90
20946;DHT22;10632;51.276;7.116;2022-11-20T02:46:08;1.80;99.90
20946;DHT22;10632;51.276;7.116;2022-11-20T02:48:36;1.80;99.90
20946;DHT22;10632;51.276;7.116;2022-11-20T02:51:03;1.80;99.90
20946;DHT22;10632;51.276;7.116;2022-11-20T02:53:34;1.80;99.90
20946;DHT22;10632;51.276;7.116;2022-11-20T02:56:06;1.80;99.90
20946;DHT22;10632;51.276;7.116;2022-11-20T02:58:39;1.80;99.90
20946;DHT22;10632;51.276;7.116;2022-11-20T03:01:06;1.80;99.90
20946;DHT22;10632;51.276;7.116;2022-11-20T03:03:33;1.80;99.90
20946;DHT22;10632;51.276;7.116;2022-11-20T03:06:00;1.80;99.90
20946;DHT22;10632;51.276;7.116;2022-11-20T03:08:30;1.80;99.90
20946;DHT22;10632;51.276;7.116;2022-11-20T03:11:07;1.80;99.90
20946;DHT22;10632;51.276;7.116;2022-11-20T03:13:40;1.80;99.90
20946;DHT22;10632;51.276;7.116;2022-11-20T03:16:12;1.80;99.90
20946;DHT22;10632;51.276;7.116;2022-11-20T03:18:41;1.90;99.90
20946;DHT22;10632;51.276;7.116;2022-11-20T03:21:14;1.80;99.90
20946;DHT22;10632;51.276;7.116;2022-11-20T03:23:46;1.80;99.90
20946;DHT22;10632;51.276;7.116;2022-11-20T03:26:19;1.80;99.90
20946;DHT22;10632;51.276;7.116;2022-11-20T03:28:52;1.80;99.90
20946;DHT22;10632;51.276;7.116;2022-11-20T03:31:27;1.90;99.90
20946;DHT22;10632;51.276;7.116;2022-11-20T03:33:56;1.80;99.90
20946;DHT22;10632;51.276;7.116;2022-11-20T03:36:26;1.80;99.90
20946;DHT22;10632;51.276;7.116;2022-11-20T03:38:54;1.80;99.90
20946;DHT22;10632;51.276;7.116;2022-11-20T03:41:29;1.80;99.90
20946;DHT22;10632;51.276;7.116;2022-11-20T03:43:58;1.70;99.90
20946;DHT22;10632;51.276;7.116;2022-11-20T03:46:27;1.80;99.90
20946;DHT22;10632;51.276;7.116;2022-11-20T03:48:55;1.70;99.90
20946;DHT22;10632;51.276;7.116;2022-11-20T03:51:27;1.70;99.90
20946;DHT22;10632;51.276;7.116;2022-11-20T03:54:03;1.70;99.90
20946;DHT22;10632;51.276;7.116;2022-11-20T03:56:33;1.70;99.90
20946;DHT22;10632;51.276;7.116;2022-11-20T03:59:01;1.70;99.90
20946;DHT22;10632;51.276;7.116;2022-11-20T04:01:31;1.70;99.90
20946;DHT22;10632;51.276;7.116;2022-11-20T04:04:05;1.70;99.90
20946;DHT22;10632;51.276;7.116;2022-11-20T04:06:37;1.70;99.90
20946;DHT22;10632;51.276;7.116;2022-11-20T04:09:05;1.70;99.90
20946;DHT22;10632;51.276;7.116;2022-11-20T04:11:35;1.70;99.90
20946;DHT22;10632;51.276;7.116;2022-11-20T04:14:04;1.70;99.90
20946;DHT22;10632;51.276;7.116;2022-11-20T04:16:34;1.80;99.90
20946;DHT22;10632;51.276;7.116;2022-11-20T04:19:19;1.80;99.90
20946;DHT22;10632;51.276;7.116;2022-11-20T04:21:46;1.80;99.90
20946;DHT22;10632;51.276;7.116;2022-11-20T04:24:22;1.80;99.90
20946;DHT22;10632;51.276;7.116;2022-11-20T04:26:52;1.80;99.90
20946;DHT22;10632;51.276;7.116;2022-11-20T04:29:18;1.80;99.90
20946;DHT22;10632;51.276;7.116;2022-11-20T04:31:59;1.80;99.90
20946;DHT22;10632;51.276;7.116;2022-11-20T04:34:35;1.90;99.90
20946;DHT22;10632;51.276;7.116;2022-11-20T04:37:02;1.90;99.90
20946;DHT22;10632;51.276;7.116;2022-11-20T04:39:31;1.90;99.90
20946;DHT22;10632;51.276;7.116;2022-11-20T04:42:04;1.90;99.90
20946;DHT22;10632;51.276;7.116;2022-11-20T04:44:52;2.00;99.90
20946;DHT22;10632;51.276;7.116;2022-11-20T04:47:23;1.90;99.90
20946;DHT22;10632;51.276;7.116;2022-11-20T04:49:50;1.90;99.90
20946;DHT22;10632;51.276;7.116;2022-11-20T04:52:17;1.90;99.90
20946;DHT22;10632;51.276;7.116;2022-11-20T04:54:44;1.90;99.90
20946;DHT22;10632;51.276;7.116;2022-11-20T04:57:24;1.90;99.90
20946;DHT22;10632;51.276;7.116;2022-11-20T05:00:15;1.90;99.90
20946;DHT22;10632;51.276;7.116;2022-11-20T05:02:46;1.90;99.90
20946;DHT22;10632;51.276;7.116;2022-11-20T05:05:20;1.90;99.90
20946;DHT22;10632;51.276;7.116;2022-11-20T05:07:47;1.90;99.90
20946;DHT22;10632;51.276;7.116;2022-11-20T05:10:14;1.90;99.90
20946;DHT22;10632;51.276;7.116;2022-11-20T05:12:43;1.90;99.90
20946;DHT22;10632;51.276;7.116;2022-11-20T05:15:10;1.90;99.90
20946;DHT22;10632;51.276;7.116;2022-11-20T05:17:36;1.90;99.90
20946;DHT22;10632;51.276;7.116;2022-11-20T05:20:04;1.80;99.90
20946;DHT22;10632;51.276;7.116;2022-11-20T05:22:31;1.80;99.90
20946;DHT22;10632;51.276;7.116;2022-11-20T05:24:58;1.80;99.90
20946;DHT22;10632;51.276;7.116;2022-11-20T05:27:25;1.70;99.90
20946;DHT22;10632;51.276;7.116;2022-11-20T05:29:53;1.70;99.90
20946;DHT22;10632;51.276;7.116;2022-11-20T05:32:23;1.70;99.90
20946;DHT22;10632;51.276;7.116;2022-11-20T05:34:50;1.70;99.90
20946;DHT22;10632;51.276;7.116;2022-11-20T05:37:20;1.60;99.90
20946;DHT22;10632;51.276;7.116;2022-11-20T05:39:47;1.60;99.90
20946;DHT22;10632;51.276;7.116;2022-11-20T05:42:14;1.60;99.90
20946;DHT22;10632;51.276;7.116;2022-11-20T05:45:01;1.60;99.90
20946;DHT22;10632;51.276;7.116;2022-11-20T05:47:32;1.50;99.90
20946;DHT22;10632;51.276;7.116;2022-11-20T05:50:00;1.50;99.90
20946;DHT22;10632;51.276;7.116;2022-11-20T05:52:28;1.50;99.90
20946;DHT22;10632;51.276;7.116;2022-11-20T05:54:55;1.50;99.90
20946;DHT22;10632;51.276;7.116;2022-11-20T05:57:22;1.50;99.90
20946;DHT22;10632;51.276;7.116;2022-11-20T05:59:49;1.50;99.90
20946;DHT22;10632;51.276;7.116;2022-11-20T06:02:20;1.60;99.90
20946;DHT22;10632;51.276;7.116;2022-11-20T06:04:47;1.60;99.90
20946;DHT22;10632;51.276;7.116;2022-11-20T06:07:14;1.60;99.90
20946;DHT22;10632;51.276;7.116;2022-11-20T06:09:41;1.60;99.90
20946;DHT22;10632;51.276;7.116;2022-11-20T06:12:08;1.50;99.90
20946;DHT22;10632;51.276;7.116;2022-11-20T06:14:34;1.50;99.90
20946;DHT22;10632;51.276;7.116;2022-11-20T06:17:02;1.50;99.90
20946;DHT22;10632;51.276;7.116;2022-11-20T06:19:30;1.50;99.90
20946;DHT22;10632;51.276;7.116;2022-11-20T06:21:57;1.50;99.90
20946;DHT22;10632;51.276;7.116;2022-11-20T06:24:26;1.50;99.90
20946;DHT22;10632;51.276;7.116;2022-11-20T06:26:53;1.60;99.90
20946;DHT22;10632;51.276;7.116;2022-11-20T06:29:21;1.60;99.90
20946;DHT22;10632;51.276;7.116;2022-11-20T06:31:51;1.60;99.90
20946;DHT22;10632;51.276;7.116;2022-11-20T06:34:18;1.60;99.90
20946;DHT22;10632;51.276;7.116;2022-11-20T06:36:46;1.50;99.90
20946;DHT22;10632;51.276;7.116;2022-11-20T06:39:13;1.50;99.90
20946;DHT22;10632;51.276;7.116;2022-11-20T06:41:39;1.60;99.90
20946;DHT22;10632;51.276;7.116;2022-11-20T06:44:06;1.60;99.90
20946;DHT22;10632;51.276;7.116;2022-11-20T06:46:33;1.60;99.90
20946;DHT22;10632;51.276;7.116;2022-11-20T06:49:00;1.60;99.90
20946;DHT22;10632;51.276;7.116;2022-11-20T06:51:27;1.60;99.90
20946;DHT22;10632;51.276;7.116;2022-11-20T06:53:55;1.60;99.90
20946;DHT22;10632;51.276;7.116;2022-11-20T06:56:22;1.50;99.90
20946;DHT22;10632;51.276;7.116;2022-11-20T06:58:50;1.50;99.90
20946;DHT22;10632;51.276;7.116;2022-11-20T07:01:19;1.60;99.90
20946;DHT22;10632;51.276;7.116;2022-11-20T07:03:48;1.60;99.90
20946;DHT22;10632;51.276;7.116;2022-11-20T07:06:18;1.60;99.90
20946;DHT22;10632;51.276;7.116;2022-11-20T07:08:45;1.70;99.90
20946;DHT22;10632;51.276;7.116;2022-11-20T07:11:21;1.70;99.90
20946;DHT22;10632;51.276;7.116;2022-11-20T07:13:47;1.70;99.90
20946;DHT22;10632;51.276;7.116;2022-11-20T07:16:15;1.70;99.90
20946;DHT22;10632;51.276;7.116;2022-11-20T07:18:42;1.70;99.90
20946;DHT22;10632;51.276;7.116;2022-11-20T07:21:12;1.70;99.90
20946;DHT22;10632;51.276;7.116;2022-11-20T07:23:39;1.70;99.90
20946;DHT22;10632;51.276;7.116;2022-11-20T07:26:16;1.70;99.90
20946;DHT22;10632;51.276;7.116;2022-11-20T07:28:46;1.70;99.90
20946;DHT22;10632;51.276;7.116;2022-11-20T07:31:13;1.70;99.90
20946;DHT22;10632;51.276;7.116;2022-11-20T07:33:46;1.70;99.90
20946;DHT22;10632;51.276;7.116;2022-11-20T07:36:16;1.70;99.90
20946;DHT22;10632;51.276;7.116;2022-11-20T07:38:43;1.70;99.90
20946;DHT22;10632;51.276;7.116;2022-11-20T07:41:11;1.70;99.90
20946;DHT22;10632;51.276;7.116;2022-11-20T07:43:46;1.60;99.90
20946;DHT22;10632;51.276;7.116;2022-11-20T07:46:13;1.60;99.90
20946;DHT22;10632;51.276;7.116;2022-11-20T07:48:40;1.60;99.90
20946;DHT22;10632;51.276;7.116;2022-11-20T07:51:10;1.70;99.90
20946;DHT22;10632;51.276;7.116;2022-11-20T07:53:39;1.70;99.90
20946;DHT22;10632;51.276;7.116;2022-11-20T07:56:12;1.70;99.90
20946;DHT22;10632;51.276;7.116;2022-11-20T07:58:40;1.70;99.90
20946;DHT22;10632;51.276;7.116;2022-11-20T08:01:11;1.70;99.90
20946;DHT22;10632;51.276;7.116;2022-11-20T08:03:44;1.70;99.90
20946;DHT22;10632;51.276;7.116;2022-11-20T08:06:10;1.70;99.90
20946;DHT22;10632;51.276;7.116;2022-11-20T08:08:41;1.70;99.90
20946;DHT22;10632;51.276;7.116;2022-11-20T08:11:14;1.70;99.90
20946;DHT22;10632;51.276;7.116;2022-11-20T08:13:58;1.70;99.90
20946;DHT22;10632;51.276;7.116;2022-11-20T08:16:50;1.70;99.90
20946;DHT22;10632;51.276;7.116;2022-11-20T08:19:22;1.80;99.90
20946;DHT22;10632;51.276;7.116;2022-11-20T08:21:50;1.70;99.90
20946;DHT22;10632;51.276;7.116;2022-11-20T08:24:17;1.80;99.90
20946;DHT22;10632;51.276;7.116;2022-11-20T08:26:50;1.80;99.90
20946;DHT22;10632;51.276;7.116;2022-11-20T08:29:17;1.80;99.90
20946;DHT22;10632;51.276;7.116;2022-11-20T08:31:46;1.80;99.90
20946;DHT22;10632;51.276;7.116;2022-11-20T08:34:13;1.90;99.90
20946;DHT22;10632;51.276;7.116;2022-11-20T08:36:40;1.90;99.90
20946;DHT22;10632;51.276;7.116;2022-11-20T08:39:07;1.90;99.90
20946;DHT22;10632;51.276;7.116;2022-11-20T08:41:35;1.90;99.90
20946;DHT22;10632;51.276;7.116;2022-11-20T08:44:04;1.90;99.90
20946;DHT22;10632;51.276;7.116;2022-11-20T08:46:33;1.90;99.90
20946;DHT22;10632;51.276;7.116;2022-11-20T08:49:03;1.90;99.90
20946;DHT22;10632;51.276;7.116;2022-11-20T08:51:30;2.00;99.90
20946;DHT22;10632;51.276;7.116;2022-11-20T08:53:57;2.00;99.90
20946;DHT22;10632;51.276;7.116;2022-11-20T08:56:27;2.00;99.90
20946;DHT22;10632;51.276;7.116;2022-11-20T08:58:54;2.00;99.90
20946;DHT22;10632;51.276;7.116;2022-11-20T09:01:22;1.90;99.90
20946;DHT22;10632;51.276;7.116;2022-11-20T09:03:49;2.00;99.90
20946;DHT22;10632;51.276;7.116;2022-11-20T09:06:18;2.00;99.90
20946;DHT22;10632;51.276;7.116;2022-11-20T09:08:45;2.00;99.90
20946;DHT22;10632;51.276;7.116;2022-11-20T09:11:12;2.00;99.90
20946;DHT22;10632;51.276;7.116;2022-11-20T09:13:39;2.00;99.90
20946;DHT22;10632;51.276;7.116;2022-11-20T09:16:09;2.00;99.90
20946;DHT22;10632;51.276;7.116;2022-11-20T09:18:36;2.10;99.90
20946;DHT22;10632;51.276;7.116;2022-11-20T09:21:06;2.00;99.90
20946;DHT22;10632;51.276;7.116;2022-11-20T09:23:35;2.00;99.90
20946;DHT22;10632;51.276;7.116;2022-11-20T09:26:03;2.00;99.90
20946;DHT22;10632;51.276;7.116;2022-11-20T09:28:30;2.00;99.90
20946;DHT22;10632;51.276;7.116;2022-11-20T09:30:58;2.00;99.90
20946;DHT22;10632;51.276;7.116;2022-11-20T09:33:25;2.00;99.90
20946;DHT22;10632;51.276;7.116;2022-11-20T09:35:52;2.10;99.90
20946;DHT22;10632;51.276;7.116;2022-11-20T09:38:19;2.00;99.90
20946;DHT22;10632;51.276;7.116;2022-11-20T09:40:53;2.00;99.90
20946;DHT22;10632;51.276;7.116;2022-11-20T09:43:28;2.10;99.90
20946;DHT22;10632;51.276;7.116;2022-11-20T09:46:14;2.10;99.90
20946;DHT22;10632;51.276;7.116;2022-11-20T09:48:56;2.10;99.90
20946;DHT22;10632;51.276;7.116;2022-11-20T09:51:39;2.30;99.90
20946;DHT22;10632;51.276;7.116;2022-11-20T09:54:15;2.40;99.90
20946;DHT22;10632;51.276;7.116;2022-11-20T09:56:46;2.50;99.90
20946;DHT22;10632;51.276;7.116;2022-11-20T09:59:29;2.60;99.90
20946;DHT22;10632;51.276;7.116;2022-11-20T10:01:59;2.60;99.90
20946;DHT22;10632;51.276;7.116;2022-11-20T10:04:29;2.50;99.90
20946;DHT22;10632;51.276;7.116;2022-11-20T10:07:02;2.50;99.90
20946;DHT22;10632;51.276;7.116;2022-11-20T10:09:33;2.50;99.90
20946;DHT22;10632;51.276;7.116;2022-11-20T10:12:13;2.40;99.90
20946;DHT22;10632;51.276;7.116;2022-11-20T10:14:55;2.40;99.90
20946;DHT22;10632;51.276;7.116;2022-11-20T10:17:33;2.40;99.90
20946;DHT22;10632;51.276;7.116;2022-11-20T10:20:16;2.40;99.90
20946;DHT22;10632;51.276;7.116;2022-11-20T10:25:26;2.40;99.90
20946;DHT22;10632;51.276;7.116;2022-11-20T10:28:27;2.50;99.90
20946;DHT22;10632;51.276;7.116;2022-11-20T10:31:03;2.50;99.90
20946;DHT22;10632;51.276;7.116;2022-11-20T10:33:34;2.60;99.90
20946;DHT22;10632;51.276;7.116;2022-11-20T10:36:10;2.60;99.90
20946;DHT22;10632;51.276;7.116;2022-11-20T10:38:43;2.70;99.90
20946;DHT22;10632;51.276;7.116;2022-11-20T10:41:19;2.80;99.90
20946;DHT22;10632;51.276;7.116;2022-11-20T10:44:01;2.90;99.90
20946;DHT22;10632;51.276;7.116;2022-11-20T10:46:37;2.90;99.90
20946;DHT22;10632;51.276;7.116;2022-11-20T10:49:13;2.90;99.90
20946;DHT22;10632;51.276;7.116;2022-11-20T10:51:54;2.80;99.90
20946;DHT22;10632;51.276;7.116;2022-11-20T10:54:32;2.90;99.90
20946;DHT22;10632;51.276;7.116;2022-11-20T10:57:05;2.80;99.90
20946;DHT22;10632;51.276;7.116;2022-11-20T10:59:58;2.80;99.90
20946;DHT22;10632;51.276;7.116;2022-11-20T11:02:33;2.80;99.90
20946;DHT22;10632;51.276;7.116;2022-11-20T11:05:12;2.90;99.90
20946;DHT22;10632;51.276;7.116;2022-11-20T11:07:41;2.90;99.90
20946;DHT22;10632;51.276;7.116;2022-11-20T11:10:16;2.90;99.90
20946;DHT22;10632;51.276;7.116;2022-11-20T11:12:46;2.90;99.90
20946;DHT22;10632;51.276;7.116;2022-11-20T11:15:26;2.90;99.90
20946;DHT22;10632;51.276;7.116;2022-11-20T11:17:55;3.00;99.90
20946;DHT22;10632;51.276;7.116;2022-11-20T11:20:24;3.00;99.90
20946;DHT22;10632;51.276;7.116;2022-11-20T11:22:56;3.00;99.90
20946;DHT22;10632;51.276;7.116;2022-11-20T11:25:28;3.10;99.90
20946;DHT22;10632;51.276;7.116;2022-11-20T11:27:57;3.10;99.90
20946;DHT22;10632;51.276;7.116;2022-11-20T11:30:42;3.10;99.90
20946;DHT22;10632;51.276;7.116;2022-11-20T11:33:17;3.10;99.90
20946;DHT22;10632;51.276;7.116;2022-11-20T11:35:47;3.20;99.90
20946;DHT22;10632;51.276;7.116;2022-11-20T11:38:21;3.20;99.90
20946;DHT22;10632;51.276;7.116;2022-11-20T11:40:49;3.20;99.90
20946;DHT22;10632;51.276;7.116;2022-11-20T11:43:26;3.20;99.90
20946;DHT22;10632;51.276;7.116;2022-11-20T11:46:36;3.20;99.90
20946;DHT22;10632;51.276;7.116;2022-11-20T11:49:15;3.20;99.90
20946;DHT22;10632;51.276;7.116;2022-11-20T11:51:56;3.30;99.90
20946;DHT22;10632;51.276;7.116;2022-11-20T11:54:30;3.30;99.90
20946;DHT22;10632;51.276;7.116;2022-11-20T11:57:00;3.30;99.90
20946;DHT22;10632;51.276;7.116;2022-11-20T11:59:41;3.30;99.90
20946;DHT22;10632;51.276;7.116;2022-11-20T12:02:27;3.30;99.90
20946;DHT22;10632;51.276;7.116;2022-11-20T12:04:58;3.20;99.90
20946;DHT22;10632;51.276;7.116;2022-11-20T12:07:35;3.20;99.90
20946;DHT22;10632;51.276;7.116;2022-11-20T12:10:06;3.20;99.90
20946;DHT22;10632;51.276;7.116;2022-11-20T12:12:41;3.20;99.90
20946;DHT22;10632;51.276;7.116;2022-11-20T12:15:11;3.20;99.90
20946;DHT22;10632;51.276;7.116;2022-11-20T12:17:40;3.20;99.90
20946;DHT22;10632;51.276;7.116;2022-11-20T12:20:12;3.30;99.90
20946;DHT22;10632;51.276;7.116;2022-11-20T12:22:46;3.30;99.90
20946;DHT22;10632;51.276;7.116;2022-11-20T12:25:20;3.30;99.90
20946;DHT22;10632;51.276;7.116;2022-11-20T12:28:08;3.30;99.90
20946;DHT22;10632;51.276;7.116;2022-11-20T12:30:45;3.40;99.90
20946;DHT22;10632;51.276;7.116;2022-11-20T12:33:29;3.40;99.90
20946;DHT22;10632;51.276;7.116;2022-11-20T12:36:11;3.40;99.90
20946;DHT22;10632;51.276;7.116;2022-11-20T12:39:02;3.40;99.90
20946;DHT22;10632;51.276;7.116;2022-11-20T12:41:43;3.40;99.90
20946;DHT22;10632;51.276;7.116;2022-11-20T12:44:44;3.40;99.90
20946;DHT22;10632;51.276;7.116;2022-11-20T12:47:50;3.40;99.90
20946;DHT22;10632;51.276;7.116;2022-11-20T12:50:28;3.40;99.90
20946;DHT22;10632;51.276;7.116;2022-11-20T12:53:03;3.50;99.90
20946;DHT22;10632;51.276;7.116;2022-11-20T12:55:42;3.50;99.90
20946;DHT22;10632;51.276;7.116;2022-11-20T12:58:19;3.50;99.90
20946;DHT22;10632;51.276;7.116;2022-11-20T13:00:54;3.60;99.90
20946;DHT22;10632;51.276;7.116;2022-11-20T13:03:42;3.60;99.90
20946;DHT22;10632;51.276;7.116;2022-11-20T13:06:16;3.60;99.90
20946;DHT22;10632;51.276;7.116;2022-11-20T13:08:48;3.60;99.90
20946;DHT22;10632;51.276;7.116;2022-11-20T13:11:21;3.60;99.90
20946;DHT22;10632;51.276;7.116;2022-11-20T13:14:13;3.70;99.90
20946;DHT22;10632;51.276;7.116;2022-11-20T13:16:50;3.60;99.90
20946;DHT22;10632;51.276;7.116;2022-11-20T13:19:19;3.70;99.90
20946;DHT22;10632;51.276;7.116;2022-11-20T13:21:53;3.70;99.90
20946;DHT22;10632;51.276;7.116;2022-11-20T13:24:23;3.70;99.90
20946;DHT22;10632;51.276;7.116;2022-11-20T13:27:17;3.70;99.90
20946;DHT22;10632;51.276;7.116;2022-11-20T13:29:58;3.70;99.90
20946;DHT22;10632;51.276;7.116;2022-11-20T13:32:27;3.70;99.90
20946;DHT22;10632;51.276;7.116;2022-11-20T13:35:00;3.70;99.90
20946;DHT22;10632;51.276;7.116;2022-11-20T13:37:34;3.70;99.90
20946;DHT22;10632;51.276;7.116;2022-11-20T13:40:21;3.80;99.90
20946;DHT22;10632;51.276;7.116;2022-11-20T13:42:55;3.80;99.90
20946;DHT22;10632;51.276;7.116;2022-11-20T13:45:25;3.80;99.90
20946;DHT22;10632;51.276;7.116;2022-11-20T13:47:53;3.80;99.90
20946;DHT22;10632;51.276;7.116;2022-11-20T13:50:39;3.80;99.90
20946;DHT22;10632;51.276;7.116;2022-11-20T13:53:20;3.80;99.90
20946;DHT22;10632;51.276;7.116;2022-11-20T13:55:54;3.80;99.90
20946;DHT22;10632;51.276;7.116;2022-11-20T13:58:45;3.90;99.90
20946;DHT22;10632;51.276;7.116;2022-11-20T14:01:19;3.90;99.90
20946;DHT22;10632;51.276;7.116;2022-11-20T14:03:50;3.90;99.90
20946;DHT22;10632;51.276;7.116;2022-11-20T14:06:27;3.90;99.90
20946;DHT22;10632;51.276;7.116;2022-11-20T14:09:02;3.90;99.90
20946;DHT22;10632;51.276;7.116;2022-11-20T14:11:31;3.90;99.90
20946;DHT22;10632;51.276;7.116;2022-11-20T14:14:00;3.90;99.90
20946;DHT22;10632;51.276;7.116;2022-11-20T14:16:30;3.90;99.90
20946;DHT22;10632;51.276;7.116;2022-11-20T14:19:16;3.90;99.90
20946;DHT22;10632;51.276;7.116;2022-11-20T14:21:46;3.90;99.90
20946;DHT22;10632;51.276;7.116;2022-11-20T14:24:19;4.00;99.90
20946;DHT22;10632;51.276;7.116;2022-11-20T14:26:51;4.00;99.90
20946;DHT22;10632;51.276;7.116;2022-11-20T14:29:36;4.00;99.90
20946;DHT22;10632;51.276;7.116;2022-11-20T14:32:04;4.00;99.90
20946;DHT22;10632;51.276;7.116;2022-11-20T14:34:35;4.00;99.90
20946;DHT22;10632;51.276;7.116;2022-11-20T14:37:06;4.00;99.90
20946;DHT22;10632;51.276;7.116;2022-11-20T14:39:42;4.00;99.90
20946;DHT22;10632;51.276;7.116;2022-11-20T14:42:15;4.00;99.90
20946;DHT22;10632;51.276;7.116;2022-11-20T14:44:43;4.00;99.90
20946;DHT22;10632;51.276;7.116;2022-11-20T14:47:13;4.00;99.90
20946;DHT22;10632;51.276;7.116;2022-11-20T14:49:41;4.00;99.90
20946;DHT22;10632;51.276;7.116;2022-11-20T14:52:16;4.00;99.90
20946;DHT22;10632;51.276;7.116;2022-11-20T14:54:48;4.00;99.90
20946;DHT22;10632;51.276;7.116;2022-11-20T14:57:24;4.00;99.90
20946;DHT22;10632;51.276;7.116;2022-11-20T14:59:51;4.10;99.90
20946;DHT22;10632;51.276;7.116;2022-11-20T15:02:30;4.00;99.90
20946;DHT22;10632;51.276;7.116;2022-11-20T15:05:01;4.00;99.90
20946;DHT22;10632;51.276;7.116;2022-11-20T15:07:33;4.10;99.90
20946;DHT22;10632;51.276;7.116;2022-11-20T15:10:19;4.10;99.90
20946;DHT22;10632;51.276;7.116;2022-11-20T15:12:48;4.10;99.90
20946;DHT22;10632;51.276;7.116;2022-11-20T15:15:19;4.10;99.90
20946;DHT22;10632;51.276;7.116;2022-11-20T15:17:47;4.10;99.90
20946;DHT22;10632;51.276;7.116;2022-11-20T15:20:32;4.00;99.90
20946;DHT22;10632;51.276;7.116;2022-11-20T15:23:00;4.10;99.90
20946;DHT22;10632;51.276;7.116;2022-11-20T15:25:29;4.00;99.90
20946;DHT22;10632;51.276;7.116;2022-11-20T15:27:59;4.00;99.90
20946;DHT22;10632;51.276;7.116;2022-11-20T15:30:27;4.00;99.90
20946;DHT22;10632;51.276;7.116;2022-11-20T15:32:56;4.10;99.90
20946;DHT22;10632;51.276;7.116;2022-11-20T15:35:22;4.10;99.90
20946;DHT22;10632;51.276;7.116;2022-11-20T15:37:49;4.10;99.90
20946;DHT22;10632;51.276;7.116;2022-11-20T15:40:17;4.10;99.90
20946;DHT22;10632;51.276;7.116;2022-11-20T15:42:46;4.10;99.90
20946;DHT22;10632;51.276;7.116;2022-11-20T15:45:29;4.10;99.90
20946;DHT22;10632;51.276;7.116;2022-11-20T15:47:56;4.10;99.90
20946;DHT22;10632;51.276;7.116;2022-11-20T15:50:37;4.10;99.90
20946;DHT22;10632;51.276;7.116;2022-11-20T15:53:05;4.20;99.90
20946;DHT22;10632;51.276;7.116;2022-11-20T15:55:31;4.20;99.90
20946;DHT22;10632;51.276;7.116;2022-11-20T15:58:00;4.20;99.90
20946;DHT22;10632;51.276;7.116;2022-11-20T16:00:27;4.30;99.90
20946;DHT22;10632;51.276;7.116;2022-11-20T16:02:54;4.30;99.90
20946;DHT22;10632;51.276;7.116;2022-11-20T16:05:21;4.30;99.90
20946;DHT22;10632;51.276;7.116;2022-11-20T16:07:50;4.30;99.90
20946;DHT22;10632;51.276;7.116;2022-11-20T16:10:17;4.30;99.90
20946;DHT22;10632;51.276;7.116;2022-11-20T16:12:44;4.40;99.90
20946;DHT22;10632;51.276;7.116;2022-11-20T16:15:30;4.40;99.90
20946;DHT22;10632;51.276;7.116;2022-11-20T16:18:15;4.40;99.90
20946;DHT22;10632;51.276;7.116;2022-11-20T16:20:42;4.50;99.90
20946;DHT22;10632;51.276;7.116;2022-11-20T16:23:09;4.50;99.90
20946;DHT22;10632;51.276;7.116;2022-11-20T16:25:41;4.50;99.90
20946;DHT22;10632;51.276;7.116;2022-11-20T16:28:08;4.50;99.90
20946;DHT22;10632;51.276;7.116;2022-11-20T16:30:37;4.50;99.90
20946;DHT22;10632;51.276;7.116;2022-11-20T16:33:04;4.50;99.90
20946;DHT22;10632;51.276;7.116;2022-11-20T16:35:32;4.50;99.90
20946;DHT22;10632;51.276;7.116;2022-11-20T16:38:02;4.40;99.90